createdAt,value
2016-08-30T00:00:08.593Z,1020.91
2016-08-30T00:00:19.777Z,1020.86
2016-08-30T00:00:35.325Z,1020.89
2016-08-30T00:00:43.795Z,1020.91
2016-08-30T00:00:48.071Z,1020.9
2016-08-30T00:00:57.766Z,1020.91
2016-08-30T00:01:08.032Z,1020.93
2016-08-30T00:01:18.923Z,1020.88
2016-08-30T00:01:29.252Z,1020.92
2016-08-30T00:01:40.534Z,1020.88
2016-08-30T00:01:50.732Z,1020.87
2016-08-30T00:02:00.660Z,1020.86
2016-08-30T00:02:09.542Z,1020.87
2016-08-30T00:02:17.721Z,1020.83
2016-08-30T00:02:30.228Z,1020.83
2016-08-30T00:02:37.895Z,1020.9
2016-08-30T00:02:47.889Z,1020.85
2016-08-30T00:03:01.378Z,1020.92
2016-08-30T00:03:07.701Z,1020.9
2016-08-30T00:03:17.693Z,1020.85
2016-08-30T00:03:27.690Z,1020.87
2016-08-30T00:03:37.685Z,1020.82
2016-08-30T00:03:48.411Z,1020.89
2016-08-30T00:03:57.677Z,1020.82
2016-08-30T00:04:07.670Z,1020.79
2016-08-30T00:04:18.395Z,1020.84
2016-08-30T00:04:27.663Z,1020.87
2016-08-30T00:04:37.658Z,1020.84
2016-08-30T00:04:47.652Z,1020.83
2016-08-30T00:04:57.648Z,1020.86
2016-08-30T00:05:08.142Z,1020.83
2016-08-30T00:05:18.533Z,1020.83
2016-08-30T00:05:27.637Z,1020.81
2016-08-30T00:05:37.630Z,1020.86
2016-08-30T00:05:48.353Z,1020.82
2016-08-30T00:05:57.618Z,1020.88
2016-08-30T00:06:07.614Z,1020.83
2016-08-30T00:06:17.610Z,1020.88
2016-08-30T00:06:27.604Z,1020.8
2016-08-30T00:06:37.601Z,1020.83
2016-08-30T00:06:47.595Z,1020.79
2016-08-30T00:06:57.592Z,1020.89
2016-08-30T00:07:07.585Z,1020.87
2016-08-30T00:07:17.579Z,1020.81
2016-08-30T00:07:27.577Z,1020.84
2016-08-30T00:07:37.570Z,1020.88
2016-08-30T00:07:47.565Z,1020.84
2016-08-30T00:07:57.563Z,1020.83
2016-08-30T00:08:07.557Z,1020.85
2016-08-30T00:08:17.550Z,1020.87
2016-08-30T00:08:27.548Z,1020.88
2016-08-30T00:08:37.543Z,1020.84
2016-08-30T00:08:47.538Z,1020.87
2016-08-30T00:08:57.533Z,1020.85
2016-08-30T00:09:08.260Z,1020.86
2016-08-30T00:09:17.522Z,1020.85
2016-08-30T00:09:27.519Z,1020.9
2016-08-30T00:09:37.516Z,1020.9
2016-08-30T00:09:47.512Z,1020.84
2016-08-30T00:09:57.502Z,1020.89
2016-08-30T00:10:07.500Z,1020.89
2016-08-30T00:10:17.495Z,1020.84
2016-08-30T00:10:27.490Z,1020.84
2016-08-30T00:10:37.487Z,1020.86
2016-08-30T00:10:47.478Z,1020.88
2016-08-30T00:10:57.477Z,1020.85
2016-08-30T00:11:07.471Z,1020.86
2016-08-30T00:11:17.469Z,1020.86
2016-08-30T00:11:27.461Z,1020.87
2016-08-30T00:11:37.457Z,1020.89
2016-08-30T00:11:47.451Z,1020.85
2016-08-30T00:11:57.449Z,1020.82
2016-08-30T00:12:07.443Z,1020.87
2016-08-30T00:12:17.439Z,1020.87
2016-08-30T00:12:27.435Z,1020.89
2016-08-30T00:12:37.429Z,1020.8
2016-08-30T00:12:47.424Z,1020.87
2016-08-30T00:12:57.416Z,1020.84
2016-08-30T00:13:07.413Z,1020.89
2016-08-30T00:13:17.409Z,1020.87
2016-08-30T00:13:27.403Z,1020.89
2016-08-30T00:13:37.401Z,1020.86
2016-08-30T00:13:47.394Z,1020.89
2016-08-30T00:13:57.391Z,1020.87
2016-08-30T00:14:07.384Z,1020.89
2016-08-30T00:14:18.110Z,1020.93
2016-08-30T00:14:27.377Z,1020.9
2016-08-30T00:14:37.372Z,1020.9
2016-08-30T00:14:47.366Z,1020.86
2016-08-30T00:14:57.362Z,1020.87
2016-08-30T00:15:07.356Z,1020.88
2016-08-30T00:15:17.352Z,1020.91
2016-08-30T00:15:27.346Z,1020.9
2016-08-30T00:15:38.078Z,1020.94
2016-08-30T00:15:47.337Z,1020.91
2016-08-30T00:15:57.334Z,1020.88
2016-08-30T00:16:07.328Z,1020.85
2016-08-30T00:16:17.337Z,1020.92
2016-08-30T00:16:27.320Z,1020.88
2016-08-30T00:16:37.312Z,1020.87
2016-08-30T00:16:47.306Z,1020.92
2016-08-30T00:16:57.302Z,1020.88
2016-08-30T00:17:07.300Z,1020.9
2016-08-30T00:17:17.307Z,1020.87
2016-08-30T00:17:27.289Z,1020.91
2016-08-30T00:17:37.283Z,1020.85
2016-08-30T00:17:47.280Z,1020.89
2016-08-30T00:17:57.275Z,1020.91
2016-08-30T00:18:08.005Z,1020.88
2016-08-30T00:18:17.266Z,1020.85
2016-08-30T00:18:27.261Z,1020.88
2016-08-30T00:18:37.258Z,1020.9
2016-08-30T00:18:47.258Z,1020.88
2016-08-30T00:18:57.251Z,1020.88
2016-08-30T00:19:07.244Z,1020.89
2016-08-30T00:19:17.237Z,1020.86
2016-08-30T00:19:27.233Z,1020.85
2016-08-30T00:19:37.229Z,1020.9
2016-08-30T00:19:47.221Z,1020.86
2016-08-30T00:19:57.220Z,1020.89
2016-08-30T00:20:07.213Z,1020.9
2016-08-30T00:20:17.208Z,1020.91
2016-08-30T00:20:27.204Z,1020.89
2016-08-30T00:20:37.198Z,1020.86
2016-08-30T00:20:47.195Z,1020.9
2016-08-30T00:20:57.191Z,1020.92
2016-08-30T00:21:07.185Z,1020.9
2016-08-30T00:21:17.180Z,1020.89
2016-08-30T00:21:27.175Z,1020.9
2016-08-30T00:21:37.168Z,1020.87
2016-08-30T00:21:47.169Z,1020.88
2016-08-30T00:21:57.160Z,1020.88
2016-08-30T00:22:07.158Z,1020.88
2016-08-30T00:22:17.152Z,1020.89
2016-08-30T00:22:27.144Z,1020.9
2016-08-30T00:22:37.142Z,1020.87
2016-08-30T00:22:47.867Z,1020.86
2016-08-30T00:22:57.132Z,1020.86
2016-08-30T00:23:07.129Z,1020.89
2016-08-30T00:23:17.121Z,1020.86
2016-08-30T00:23:27.119Z,1020.86
2016-08-30T00:23:37.113Z,1020.9
2016-08-30T00:23:47.110Z,1020.88
2016-08-30T00:23:57.102Z,1020.93
2016-08-30T00:24:07.098Z,1020.92
2016-08-30T00:24:17.092Z,1020.9
2016-08-30T00:24:27.094Z,1020.97
2016-08-30T00:24:37.083Z,1020.94
2016-08-30T00:24:47.081Z,1020.87
2016-08-30T00:24:57.075Z,1020.89
2016-08-30T00:25:07.105Z,1020.89
2016-08-30T00:25:17.066Z,1020.9
2016-08-30T00:25:27.061Z,1020.89
2016-08-30T00:25:37.056Z,1020.89
2016-08-30T00:25:47.052Z,1020.91
2016-08-30T00:25:57.047Z,1020.89
2016-08-30T00:26:07.043Z,1020.88
2016-08-30T00:26:17.037Z,1020.9
2016-08-30T00:26:27.034Z,1020.92
2016-08-30T00:26:37.029Z,1020.9
2016-08-30T00:26:47.021Z,1020.96
2016-08-30T00:26:57.017Z,1020.95
2016-08-30T00:27:07.014Z,1020.9
2016-08-30T00:27:17.007Z,1020.92
2016-08-30T00:27:27.005Z,1020.9
2016-08-30T00:27:36.997Z,1020.93
2016-08-30T00:27:46.995Z,1020.93
2016-08-30T00:27:56.990Z,1020.96
2016-08-30T00:28:06.983Z,1020.92
2016-08-30T00:28:16.981Z,1020.9
2016-08-30T00:28:26.976Z,1020.92
2016-08-30T00:28:36.972Z,1020.91
2016-08-30T00:28:46.968Z,1020.91
2016-08-30T00:28:56.962Z,1020.95
2016-08-30T00:29:06.957Z,1020.91
2016-08-30T00:29:16.952Z,1020.95
2016-08-30T00:29:26.944Z,1020.95
2016-08-30T00:29:36.942Z,1020.92
2016-08-30T00:29:46.936Z,1020.93
2016-08-30T00:29:56.931Z,1020.96
2016-08-30T00:30:09.003Z,1020.94
2016-08-30T00:30:16.921Z,1020.94
2016-08-30T00:30:27.251Z,1020.94
2016-08-30T00:30:36.914Z,1020.93
2016-08-30T00:30:46.904Z,1020.96
2016-08-30T00:30:56.903Z,1020.93
2016-08-30T00:31:06.899Z,1020.98
2016-08-30T00:31:16.893Z,1020.95
2016-08-30T00:31:26.888Z,1020.97
2016-08-30T00:31:36.884Z,1020.95
2016-08-30T00:31:46.879Z,1021
2016-08-30T00:31:56.872Z,1020.98
2016-08-30T00:32:06.870Z,1021.02
2016-08-30T00:32:16.866Z,1020.99
2016-08-30T00:32:26.861Z,1021.01
2016-08-30T00:32:36.855Z,1021.02
2016-08-30T00:32:46.851Z,1020.97
2016-08-30T00:32:56.843Z,1020.96
2016-08-30T00:33:06.842Z,1020.99
2016-08-30T00:33:16.837Z,1021.01
2016-08-30T00:33:26.830Z,1020.96
2016-08-30T00:33:36.827Z,1021.02
2016-08-30T00:33:46.822Z,1020.97
2016-08-30T00:33:56.817Z,1020.99
2016-08-30T00:34:06.812Z,1021
2016-08-30T00:34:16.807Z,1021.03
2016-08-30T00:34:26.803Z,1020.98
2016-08-30T00:34:36.797Z,1021
2016-08-30T00:34:46.792Z,1021
2016-08-30T00:34:56.787Z,1021.03
2016-08-30T00:35:06.823Z,1020.98
2016-08-30T00:35:16.777Z,1020.98
2016-08-30T00:35:26.774Z,1020.95
2016-08-30T00:35:36.766Z,1021
2016-08-30T00:35:46.763Z,1020.94
2016-08-30T00:35:56.760Z,1021.01
2016-08-30T00:36:06.752Z,1021.04
2016-08-30T00:36:16.751Z,1020.98
2016-08-30T00:36:26.745Z,1021
2016-08-30T00:36:36.738Z,1021.01
2016-08-30T00:36:46.737Z,1021.01
2016-08-30T00:36:56.730Z,1021.03
2016-08-30T00:37:06.728Z,1020.98
2016-08-30T00:37:16.722Z,1020.99
2016-08-30T00:37:26.714Z,1021.01
2016-08-30T00:37:36.711Z,1021
2016-08-30T00:37:46.709Z,1021.02
2016-08-30T00:37:56.703Z,1020.99
2016-08-30T00:38:06.695Z,1020.98
2016-08-30T00:38:16.692Z,1021.01
2016-08-30T00:38:26.686Z,1020.97
2016-08-30T00:38:36.684Z,1021
2016-08-30T00:38:46.678Z,1020.99
2016-08-30T00:38:56.675Z,1020.97
2016-08-30T00:39:06.669Z,1020.98
2016-08-30T00:39:16.665Z,1021
2016-08-30T00:39:26.658Z,1020.96
2016-08-30T00:39:36.653Z,1020.96
2016-08-30T00:39:46.649Z,1020.98
2016-08-30T00:39:56.645Z,1020.98
2016-08-30T00:40:06.644Z,1020.99
2016-08-30T00:40:16.836Z,1021
2016-08-30T00:40:26.632Z,1020.97
2016-08-30T00:40:36.624Z,1020.94
2016-08-30T00:40:46.621Z,1020.94
2016-08-30T00:40:56.617Z,1020.94
2016-08-30T00:41:06.612Z,1020.95
2016-08-30T00:41:16.611Z,1020.94
2016-08-30T00:41:26.604Z,1020.96
2016-08-30T00:41:36.597Z,1020.92
2016-08-30T00:41:46.591Z,1020.95
2016-08-30T00:41:56.586Z,1020.93
2016-08-30T00:42:06.580Z,1020.94
2016-08-30T00:42:16.576Z,1020.94
2016-08-30T00:42:26.574Z,1020.97
2016-08-30T00:42:36.570Z,1020.96
2016-08-30T00:42:46.561Z,1021
2016-08-30T00:42:56.559Z,1020.97
2016-08-30T00:43:06.557Z,1020.92
2016-08-30T00:43:16.549Z,1020.94
2016-08-30T00:43:26.546Z,1020.91
2016-08-30T00:43:36.541Z,1020.96
2016-08-30T00:43:46.534Z,1020.92
2016-08-30T00:43:56.547Z,1020.95
2016-08-30T00:44:06.525Z,1020.94
2016-08-30T00:44:16.520Z,1020.95
2016-08-30T00:44:26.515Z,1020.94
2016-08-30T00:44:36.510Z,1020.96
2016-08-30T00:44:46.505Z,1020.93
2016-08-30T00:44:56.501Z,1020.95
2016-08-30T00:45:06.526Z,1020.97
2016-08-30T00:45:16.492Z,1021
2016-08-30T00:45:26.485Z,1020.92
2016-08-30T00:45:36.481Z,1020.96
2016-08-30T00:45:46.477Z,1020.98
2016-08-30T00:45:56.471Z,1020.97
2016-08-30T00:46:06.466Z,1020.98
2016-08-30T00:46:16.461Z,1021.01
2016-08-30T00:46:26.457Z,1020.94
2016-08-30T00:46:36.455Z,1020.94
2016-08-30T00:46:46.447Z,1020.99
2016-08-30T00:46:56.442Z,1021.04
2016-08-30T00:47:06.438Z,1020.94
2016-08-30T00:47:16.434Z,1020.94
2016-08-30T00:47:26.428Z,1021.03
2016-08-30T00:47:36.424Z,1020.99
2016-08-30T00:47:46.416Z,1021.02
2016-08-30T00:47:56.414Z,1021.01
2016-08-30T00:48:06.410Z,1020.99
2016-08-30T00:48:16.404Z,1021.03
2016-08-30T00:48:26.401Z,1021.03
2016-08-30T00:48:36.397Z,1020.95
2016-08-30T00:48:46.393Z,1020.97
2016-08-30T00:48:56.384Z,1021.01
2016-08-30T00:49:06.379Z,1021
2016-08-30T00:49:16.375Z,1021
2016-08-30T00:49:26.370Z,1021.02
2016-08-30T00:49:36.366Z,1021.01
2016-08-30T00:49:46.383Z,1021.06
2016-08-30T00:49:56.357Z,1021.01
2016-08-30T00:50:06.355Z,1021.01
2016-08-30T00:50:16.346Z,1021.05
2016-08-30T00:50:26.343Z,1021.07
2016-08-30T00:50:36.338Z,1021.04
2016-08-30T00:50:46.333Z,1021.03
2016-08-30T00:50:56.337Z,1021.02
2016-08-30T00:51:06.324Z,1021.01
2016-08-30T00:51:16.318Z,1021.01
2016-08-30T00:51:26.312Z,1021.01
2016-08-30T00:51:36.308Z,1021.03
2016-08-30T00:51:46.307Z,1021.01
2016-08-30T00:51:56.298Z,1020.98
2016-08-30T00:52:06.301Z,1021.04
2016-08-30T00:52:16.291Z,1021.02
2016-08-30T00:52:26.283Z,1021.01
2016-08-30T00:52:36.280Z,1021.04
2016-08-30T00:52:46.275Z,1021.01
2016-08-30T00:52:56.270Z,1021.08
2016-08-30T00:53:06.266Z,1021.06
2016-08-30T00:53:16.261Z,1021.06
2016-08-30T00:53:26.257Z,1021.04
2016-08-30T00:53:36.256Z,1021.03
2016-08-30T00:53:46.246Z,1021.04
2016-08-30T00:53:56.242Z,1021.01
2016-08-30T00:54:06.243Z,1021.03
2016-08-30T00:54:16.234Z,1021.02
2016-08-30T00:54:26.227Z,1021.04
2016-08-30T00:54:36.223Z,1021.04
2016-08-30T00:54:46.216Z,1021.03
2016-08-30T00:54:56.213Z,1021
2016-08-30T00:55:06.208Z,1020.99
2016-08-30T00:55:16.209Z,1021.04
2016-08-30T00:55:26.197Z,1020.99
2016-08-30T00:55:36.190Z,1021.03
2016-08-30T00:55:46.189Z,1021.02
2016-08-30T00:55:56.185Z,1020.98
2016-08-30T00:56:06.179Z,1021.05
2016-08-30T00:56:16.175Z,1021.02
2016-08-30T00:56:26.170Z,1020.99
2016-08-30T00:56:36.164Z,1021.01
2016-08-30T00:56:46.160Z,1021.01
2016-08-30T00:56:56.154Z,1021.01
2016-08-30T00:57:06.149Z,1021
2016-08-30T00:57:16.146Z,1021.02
2016-08-30T00:57:26.143Z,1020.98
2016-08-30T00:57:36.135Z,1020.97
2016-08-30T00:57:46.134Z,1021
2016-08-30T00:57:56.126Z,1021
2016-08-30T00:58:06.122Z,1020.97
2016-08-30T00:58:16.117Z,1020.97
2016-08-30T00:58:26.109Z,1020.98
2016-08-30T00:58:36.108Z,1020.97
2016-08-30T00:58:46.100Z,1020.98
2016-08-30T00:58:56.099Z,1020.98
2016-08-30T00:59:06.092Z,1020.99
2016-08-30T00:59:16.088Z,1020.99
2016-08-30T00:59:26.082Z,1020.97
2016-08-30T00:59:36.078Z,1021
2016-08-30T00:59:46.077Z,1021.01
2016-08-30T00:59:56.069Z,1021.02
2016-08-30T01:00:06.064Z,1021.03
2016-08-30T01:00:16.058Z,1020.97
2016-08-30T01:00:26.294Z,1020.97
2016-08-30T01:00:36.047Z,1020.99
2016-08-30T01:00:46.045Z,1020.96
2016-08-30T01:00:56.038Z,1021
2016-08-30T01:01:06.034Z,1021.02
2016-08-30T01:01:16.031Z,1021.04
2016-08-30T01:01:26.026Z,1021.01
2016-08-30T01:01:36.020Z,1021.01
2016-08-30T01:01:46.013Z,1021.03
2016-08-30T01:01:56.010Z,1021.02
2016-08-30T01:02:06.006Z,1021.03
2016-08-30T01:02:16.000Z,1021.02
2016-08-30T01:02:25.997Z,1021.04
2016-08-30T01:02:35.990Z,1021.01
2016-08-30T01:02:45.986Z,1021.02
2016-08-30T01:02:55.982Z,1021.01
2016-08-30T01:03:05.977Z,1021.02
2016-08-30T01:03:15.971Z,1021.03
2016-08-30T01:03:25.972Z,1020.99
2016-08-30T01:03:35.959Z,1020.96
2016-08-30T01:03:46.685Z,1021.04
2016-08-30T01:03:55.952Z,1020.99
2016-08-30T01:04:05.949Z,1021.07
2016-08-30T01:04:15.942Z,1020.98
2016-08-30T01:04:25.939Z,1021.03
2016-08-30T01:04:36.669Z,1020.99
2016-08-30T01:04:45.926Z,1020.99
2016-08-30T01:04:55.923Z,1020.99
2016-08-30T01:05:05.918Z,1020.98
2016-08-30T01:05:15.913Z,1020.99
2016-08-30T01:05:25.909Z,1021.04
2016-08-30T01:05:35.905Z,1021.05
2016-08-30T01:05:45.901Z,1021.01
2016-08-30T01:05:55.895Z,1021
2016-08-30T01:06:05.888Z,1021.01
2016-08-30T01:06:15.884Z,1021.02
2016-08-30T01:06:25.880Z,1020.99
2016-08-30T01:06:35.875Z,1021.02
2016-08-30T01:06:45.869Z,1021.09
2016-08-30T01:06:55.865Z,1021.02
2016-08-30T01:07:05.862Z,1021.01
2016-08-30T01:07:15.856Z,1021.04
2016-08-30T01:07:25.850Z,1021.03
2016-08-30T01:07:35.846Z,1021.04
2016-08-30T01:07:45.839Z,1021.05
2016-08-30T01:07:55.839Z,1021.05
2016-08-30T01:08:05.831Z,1021.09
2016-08-30T01:08:15.828Z,1021.08
2016-08-30T01:08:25.824Z,1021.04
2016-08-30T01:08:35.816Z,1021.1
2016-08-30T01:08:45.811Z,1021.1
2016-08-30T01:08:55.805Z,1021.08
2016-08-30T01:09:05.804Z,1021.09
2016-08-30T01:09:15.807Z,1021.06
2016-08-30T01:09:25.793Z,1021.1
2016-08-30T01:09:35.789Z,1021.08
2016-08-30T01:09:45.783Z,1021.05
2016-08-30T01:09:55.777Z,1021.08
2016-08-30T01:10:05.774Z,1021.07
2016-08-30T01:10:15.766Z,1021.08
2016-08-30T01:10:25.764Z,1021.08
2016-08-30T01:10:35.760Z,1021.06
2016-08-30T01:10:45.753Z,1021.07
2016-08-30T01:10:55.750Z,1021.08
2016-08-30T01:11:05.745Z,1021.09
2016-08-30T01:11:15.740Z,1021.1
2016-08-30T01:11:25.735Z,1021.09
2016-08-30T01:11:35.731Z,1021.08
2016-08-30T01:11:45.724Z,1021.15
2016-08-30T01:11:55.720Z,1021.07
2016-08-30T01:12:05.716Z,1021.06
2016-08-30T01:12:15.711Z,1021.1
2016-08-30T01:12:25.708Z,1021.12
2016-08-30T01:12:35.702Z,1021.08
2016-08-30T01:12:45.696Z,1021.1
2016-08-30T01:12:55.690Z,1021.09
2016-08-30T01:13:05.685Z,1021.11
2016-08-30T01:13:15.685Z,1021.11
2016-08-30T01:13:25.678Z,1021.12
2016-08-30T01:13:35.673Z,1021.1
2016-08-30T01:13:45.669Z,1021.12
2016-08-30T01:13:55.664Z,1021.11
2016-08-30T01:14:05.660Z,1021.1
2016-08-30T01:14:15.654Z,1021.12
2016-08-30T01:14:25.646Z,1021.14
2016-08-30T01:14:35.645Z,1021.08
2016-08-30T01:14:45.636Z,1021.1
2016-08-30T01:14:55.635Z,1021.1
2016-08-30T01:15:05.629Z,1021.15
2016-08-30T01:15:15.622Z,1021.12
2016-08-30T01:15:25.619Z,1021.13
2016-08-30T01:15:35.612Z,1021.12
2016-08-30T01:15:45.609Z,1021.13
2016-08-30T01:15:55.604Z,1021.09
2016-08-30T01:16:05.601Z,1021.11
2016-08-30T01:16:15.597Z,1021.12
2016-08-30T01:16:25.593Z,1021.13
2016-08-30T01:16:35.585Z,1021.13
2016-08-30T01:16:45.579Z,1021.1
2016-08-30T01:16:55.574Z,1021.13
2016-08-30T01:17:05.573Z,1021.13
2016-08-30T01:17:15.567Z,1021.1
2016-08-30T01:17:25.563Z,1021.1
2016-08-30T01:17:35.557Z,1021.15
2016-08-30T01:17:45.553Z,1021.13
2016-08-30T01:17:55.548Z,1021.14
2016-08-30T01:18:05.543Z,1021.13
2016-08-30T01:18:15.537Z,1021.13
2016-08-30T01:18:25.532Z,1021.11
2016-08-30T01:18:35.527Z,1021.17
2016-08-30T01:18:45.522Z,1021.14
2016-08-30T01:18:55.520Z,1021.14
2016-08-30T01:19:05.512Z,1021.15
2016-08-30T01:19:15.506Z,1021.14
2016-08-30T01:19:25.504Z,1021.09
2016-08-30T01:19:35.499Z,1021.1
2016-08-30T01:19:45.493Z,1021.11
2016-08-30T01:19:55.493Z,1021.11
2016-08-30T01:20:05.485Z,1021.12
2016-08-30T01:20:15.488Z,1021.15
2016-08-30T01:20:25.476Z,1021.13
2016-08-30T01:20:35.469Z,1021.1
2016-08-30T01:20:45.465Z,1021.07
2016-08-30T01:20:55.461Z,1021.13
2016-08-30T01:21:05.454Z,1021.13
2016-08-30T01:21:15.452Z,1021.15
2016-08-30T01:21:25.446Z,1021.14
2016-08-30T01:21:35.441Z,1021.13
2016-08-30T01:21:45.437Z,1021.13
2016-08-30T01:21:55.430Z,1021.12
2016-08-30T01:22:05.427Z,1021.14
2016-08-30T01:22:15.421Z,1021.13
2016-08-30T01:22:25.416Z,1021.14
2016-08-30T01:22:35.411Z,1021.16
2016-08-30T01:22:45.407Z,1021.1
2016-08-30T01:22:55.404Z,1021.15
2016-08-30T01:23:06.128Z,1021.14
2016-08-30T01:23:15.398Z,1021.14
2016-08-30T01:23:25.387Z,1021.18
2016-08-30T01:23:35.382Z,1021.13
2016-08-30T01:23:45.379Z,1021.15
2016-08-30T01:23:55.374Z,1021.15
2016-08-30T01:24:05.367Z,1021.16
2016-08-30T01:24:15.364Z,1021.14
2016-08-30T01:24:25.360Z,1021.18
2016-08-30T01:24:35.352Z,1021.13
2016-08-30T01:24:45.346Z,1021.15
2016-08-30T01:24:55.343Z,1021.1
2016-08-30T01:25:05.356Z,1021.11
2016-08-30T01:25:15.336Z,1021.2
2016-08-30T01:25:25.329Z,1021.19
2016-08-30T01:25:35.325Z,1021.15
2016-08-30T01:25:45.320Z,1021.18
2016-08-30T01:25:55.317Z,1021.15
2016-08-30T01:26:05.313Z,1021.1
2016-08-30T01:26:15.304Z,1021.11
2016-08-30T01:26:25.301Z,1021.12
2016-08-30T01:26:35.299Z,1021.12
2016-08-30T01:26:45.292Z,1021.14
2016-08-30T01:26:55.285Z,1021.15
2016-08-30T01:27:05.280Z,1021.14
2016-08-30T01:27:15.276Z,1021.11
2016-08-30T01:27:25.271Z,1021.15
2016-08-30T01:27:35.267Z,1021.18
2016-08-30T01:27:45.262Z,1021.13
2016-08-30T01:27:55.256Z,1021.15
2016-08-30T01:28:05.252Z,1021.13
2016-08-30T01:28:15.247Z,1021.11
2016-08-30T01:28:25.242Z,1021.14
2016-08-30T01:28:35.236Z,1021.08
2016-08-30T01:28:45.232Z,1021.15
2016-08-30T01:28:55.227Z,1021.1
2016-08-30T01:29:05.221Z,1021.14
2016-08-30T01:29:15.218Z,1021.12
2016-08-30T01:29:25.212Z,1021.13
2016-08-30T01:29:35.211Z,1021.13
2016-08-30T01:29:45.205Z,1021.1
2016-08-30T01:29:55.198Z,1021.17
2016-08-30T01:30:05.195Z,1021.13
2016-08-30T01:30:15.187Z,1021.09
2016-08-30T01:30:25.185Z,1021.06
2016-08-30T01:30:35.179Z,1021.07
2016-08-30T01:30:45.171Z,1021.11
2016-08-30T01:30:55.170Z,1021.1
2016-08-30T01:31:05.166Z,1021.09
2016-08-30T01:31:15.162Z,1021.09
2016-08-30T01:31:25.155Z,1021.12
2016-08-30T01:31:35.152Z,1021.06
2016-08-30T01:31:45.146Z,1021.1
2016-08-30T01:31:55.138Z,1021.11
2016-08-30T01:32:05.135Z,1021.06
2016-08-30T01:32:15.131Z,1021.07
2016-08-30T01:32:25.127Z,1021.08
2016-08-30T01:32:35.123Z,1021.09
2016-08-30T01:32:45.117Z,1021.03
2016-08-30T01:32:55.111Z,1021.08
2016-08-30T01:33:05.106Z,1021.07
2016-08-30T01:33:15.103Z,1021.12
2016-08-30T01:33:25.099Z,1021.09
2016-08-30T01:33:35.095Z,1021.1
2016-08-30T01:33:45.087Z,1021.13
2016-08-30T01:33:55.082Z,1021.09
2016-08-30T01:34:05.079Z,1021.1
2016-08-30T01:34:15.076Z,1021.11
2016-08-30T01:34:25.066Z,1021.08
2016-08-30T01:34:35.065Z,1021.11
2016-08-30T01:34:45.056Z,1021.11
2016-08-30T01:34:55.068Z,1021.13
2016-08-30T01:35:05.047Z,1021.11
2016-08-30T01:35:16.101Z,1021.13
2016-08-30T01:35:25.037Z,1021.09
2016-08-30T01:35:35.033Z,1021.08
2016-08-30T01:35:46.377Z,1021.09
2016-08-30T01:35:55.027Z,1021.07
2016-08-30T01:36:05.022Z,1021.07
2016-08-30T01:36:15.015Z,1021.1
2016-08-30T01:36:25.015Z,1021.13
2016-08-30T01:36:35.006Z,1021.09
2016-08-30T01:36:45.001Z,1021.08
2016-08-30T01:36:54.994Z,1021.11
2016-08-30T01:37:04.990Z,1021.11
2016-08-30T01:37:14.987Z,1021.1
2016-08-30T01:37:24.982Z,1021.1
2016-08-30T01:37:34.976Z,1021.11
2016-08-30T01:37:44.971Z,1021.13
2016-08-30T01:37:54.964Z,1021.11
2016-08-30T01:38:04.960Z,1021.12
2016-08-30T01:38:14.957Z,1021.1
2016-08-30T01:38:24.954Z,1021.15
2016-08-30T01:38:34.949Z,1021.12
2016-08-30T01:38:44.945Z,1021.13
2016-08-30T01:38:54.936Z,1021.15
2016-08-30T01:39:04.933Z,1021.16
2016-08-30T01:39:14.929Z,1021.12
2016-08-30T01:39:24.921Z,1021.19
2016-08-30T01:39:34.919Z,1021.14
2016-08-30T01:39:44.912Z,1021.11
2016-08-30T01:39:54.918Z,1021.15
2016-08-30T01:40:04.904Z,1021.15
2016-08-30T01:40:15.629Z,1021.13
2016-08-30T01:40:24.894Z,1021.15
2016-08-30T01:40:34.888Z,1021.18
2016-08-30T01:40:44.885Z,1021.16
2016-08-30T01:40:54.879Z,1021.17
2016-08-30T01:41:04.874Z,1021.18
2016-08-30T01:41:14.871Z,1021.19
2016-08-30T01:41:24.867Z,1021.16
2016-08-30T01:41:34.866Z,1021.19
2016-08-30T01:41:44.856Z,1021.18
2016-08-30T01:41:54.849Z,1021.2
2016-08-30T01:42:04.844Z,1021.19
2016-08-30T01:42:14.839Z,1021.21
2016-08-30T01:42:24.835Z,1021.22
2016-08-30T01:42:34.833Z,1021.21
2016-08-30T01:42:44.825Z,1021.24
2016-08-30T01:42:54.820Z,1021.22
2016-08-30T01:43:04.817Z,1021.25
2016-08-30T01:43:14.810Z,1021.29
2016-08-30T01:43:24.808Z,1021.24
2016-08-30T01:43:34.802Z,1021.26
2016-08-30T01:43:44.794Z,1021.27
2016-08-30T01:43:54.795Z,1021.28
2016-08-30T01:44:04.788Z,1021.27
2016-08-30T01:44:14.781Z,1021.26
2016-08-30T01:44:24.778Z,1021.24
2016-08-30T01:44:34.774Z,1021.24
2016-08-30T01:44:44.767Z,1021.25
2016-08-30T01:44:54.763Z,1021.21
2016-08-30T01:45:04.763Z,1021.27
2016-08-30T01:45:14.758Z,1021.26
2016-08-30T01:45:24.746Z,1021.27
2016-08-30T01:45:34.743Z,1021.27
2016-08-30T01:45:44.739Z,1021.22
2016-08-30T01:45:54.733Z,1021.26
2016-08-30T01:46:04.729Z,1021.31
2016-08-30T01:46:14.725Z,1021.27
2016-08-30T01:46:24.720Z,1021.24
2016-08-30T01:46:34.714Z,1021.29
2016-08-30T01:46:44.713Z,1021.3
2016-08-30T01:46:54.707Z,1021.31
2016-08-30T01:47:04.698Z,1021.27
2016-08-30T01:47:14.694Z,1021.26
2016-08-30T01:47:24.690Z,1021.26
2016-08-30T01:47:34.684Z,1021.26
2016-08-30T01:47:44.680Z,1021.26
2016-08-30T01:47:54.681Z,1021.26
2016-08-30T01:48:04.670Z,1021.31
2016-08-30T01:48:14.672Z,1021.28
2016-08-30T01:48:24.664Z,1021.23
2016-08-30T01:48:34.656Z,1021.26
2016-08-30T01:48:44.650Z,1021.27
2016-08-30T01:48:54.650Z,1021.25
2016-08-30T01:49:04.643Z,1021.27
2016-08-30T01:49:14.637Z,1021.22
2016-08-30T01:49:24.632Z,1021.24
2016-08-30T01:49:34.628Z,1021.22
2016-08-30T01:49:44.623Z,1021.22
2016-08-30T01:49:54.617Z,1021.24
2016-08-30T01:50:04.703Z,1021.22
2016-08-30T01:50:14.886Z,1021.25
2016-08-30T01:50:24.924Z,1021.23
2016-08-30T01:50:34.598Z,1021.24
2016-08-30T01:50:44.593Z,1021.19
2016-08-30T01:50:54.587Z,1021.24
2016-08-30T01:51:04.584Z,1021.21
2016-08-30T01:51:14.578Z,1021.25
2016-08-30T01:51:24.574Z,1021.25
2016-08-30T01:51:34.568Z,1021.24
2016-08-30T01:51:44.565Z,1021.22
2016-08-30T01:51:54.572Z,1021.25
2016-08-30T01:52:04.553Z,1021.25
2016-08-30T01:52:14.549Z,1021.25
2016-08-30T01:52:24.547Z,1021.24
2016-08-30T01:52:34.540Z,1021.22
2016-08-30T01:52:44.536Z,1021.26
2016-08-30T01:52:55.260Z,1021.3
2016-08-30T01:53:04.526Z,1021.25
2016-08-30T01:53:14.520Z,1021.23
2016-08-30T01:53:25.242Z,1021.24
2016-08-30T01:53:34.512Z,1021.23
2016-08-30T01:53:44.507Z,1021.24
2016-08-30T01:53:54.499Z,1021.25
2016-08-30T01:54:04.497Z,1021.23
2016-08-30T01:54:14.489Z,1021.27
2016-08-30T01:54:24.486Z,1021.24
2016-08-30T01:54:34.481Z,1021.28
2016-08-30T01:54:44.475Z,1021.24
2016-08-30T01:54:54.472Z,1021.3
2016-08-30T01:55:04.609Z,1021.28
2016-08-30T01:55:14.467Z,1021.26
2016-08-30T01:55:24.457Z,1021.29
2016-08-30T01:55:34.453Z,1021.27
2016-08-30T01:55:44.447Z,1021.23
2016-08-30T01:55:54.451Z,1021.28
2016-08-30T01:56:04.438Z,1021.29
2016-08-30T01:56:14.434Z,1021.33
2016-08-30T01:56:24.429Z,1021.25
2016-08-30T01:56:34.424Z,1021.32
2016-08-30T01:56:44.420Z,1021.28
2016-08-30T01:56:55.143Z,1021.29
2016-08-30T01:57:04.408Z,1021.26
2016-08-30T01:57:14.404Z,1021.33
2016-08-30T01:57:24.397Z,1021.29
2016-08-30T01:57:34.393Z,1021.27
2016-08-30T01:57:44.390Z,1021.27
2016-08-30T01:57:54.385Z,1021.27
2016-08-30T01:58:04.393Z,1021.32
2016-08-30T01:58:14.374Z,1021.23
2016-08-30T01:58:24.369Z,1021.28
2016-08-30T01:58:34.365Z,1021.27
2016-08-30T01:58:44.359Z,1021.23
2016-08-30T01:58:54.356Z,1021.27
2016-08-30T01:59:04.351Z,1021.27
2016-08-30T01:59:14.345Z,1021.28
2016-08-30T01:59:24.341Z,1021.27
2016-08-30T01:59:34.335Z,1021.26
2016-08-30T01:59:45.061Z,1021.28
2016-08-30T01:59:54.331Z,1021.26
2016-08-30T02:00:04.676Z,1021.29
2016-08-30T02:00:15.313Z,1021.21
2016-08-30T02:00:24.311Z,1021.26
2016-08-30T02:00:34.306Z,1021.27
2016-08-30T02:00:44.303Z,1021.29
2016-08-30T02:00:54.296Z,1021.33
2016-08-30T02:01:04.292Z,1021.27
2016-08-30T02:01:14.287Z,1021.29
2016-08-30T02:01:24.294Z,1021.29
2016-08-30T02:01:34.280Z,1021.28